PPRuNe Forums - Search Results

Go Back  PPRuNe Forums > Search Forums
Reload this Page >

Search Results

Search: Posts Made By: iFunFlyer
Showing results 1 to 10 of 10
Search took 0.00 seconds.
12th Sep 2022, 07:25
Replies: 120
Views: 16,813
Posted By iFunFlyer

Check your PM

Check your PM
Forum: Middle East
5th Aug 2022, 03:03
Replies: 392
Views: 130,139
Posted By iFunFlyer

Anyone know if they’re willing to accept...

Anyone know if they’re willing to accept applications from someone approx. 100hrs short of the stated requirements?
Forum: Middle East
4th Aug 2022, 09:30
Replies: 262
Views: 106,741
Posted By iFunFlyer

Got 2 questions for someone at EK now: 1)...

Got 2 questions for someone at EK now:

1) what’s the law now regarding living with your girlfriend? If I took company accommodation, would it be an issue with front door security etc?

2) with...
3rd Aug 2022, 18:00
Replies: 257
Views: 64,449
Posted By iFunFlyer

Any ideas as to when BA will start arranging...

Any ideas as to when BA will start arranging interviews?
Forum: Middle East
11th Apr 2022, 18:47
Replies: 602
Views: 278,191
Posted By iFunFlyer

Likewise, got the rejection letter today.

Likewise, got the rejection letter today.
15th Dec 2021, 11:34
Replies: 192
Views: 91,265
Posted By iFunFlyer

There used to be a PDF/link on this thread with...

There used to be a PDF/link on this thread with the T&C/salaries, anyone know where it’s gone?
Replies: 74
Views: 24,431
Posted By iFunFlyer

Nope, results are sent out 1 day after the...

Nope, results are sent out 1 day after the sitting period for that venue.
Replies: 1,316
Views: 776,254
Posted By iFunFlyer

XXXX 251020Z 24005KT 5000 NSC 05/03 Q1022...

XXXX 251020Z 24005KT 5000 NSC 05/03 Q1022 R99/3101//

Can anyone decode, "R99/3101//"?

Thanks
Replies: 13
Views: 6,822
Posted By iFunFlyer

I think it really depends on which topic you're...

I think it really depends on which topic you're studying.

For example, I find doing lots of questions for Gen Nav the most efficient method to understand where I'm doing well and where I'm...
Replies: 4
Views: 2,420
Posted By iFunFlyer

So if hold an IR(R), will you only have to...

So if hold an IR(R), will you only have to complete 40 hours as part of the full IR/ME course as opposed to 55 hours?
Showing results 1 to 10 of 10


 
Forum Jump

Contact Us - Archive - Advertising - Cookie Policy - Privacy Statement - Terms of Service - Do Not Sell My Personal Information

Copyright © 2021 MH Sub I, LLC dba Internet Brands. All rights reserved. Use of this site indicates your consent to the Terms of Use.